Time,TemperatureF,DewpointF,PressureIn,WindDirection,WindDirectionDegrees,WindSpeedMPH,WindSpeedGustMPH,Humidity,HourlyPrecipIn,Conditions,Clouds,dailyrainin,SoftwareType,DateUTC
2013-02-12 00:00:00,36.2,30.0,30.25,NW,309,0.0,-999.0,78,-99.99,,,0.04,weatherlink.com 1.10,2013-02-12 07:00:00,
2013-02-12 00:15:00,36.6,30.0,30.25,NW,309,0.0,-999.0,76,-99.99,,,0.00,weatherlink.com 1.10,2013-02-12 07:15:00,
2013-02-12 00:30:00,37.0,29.0,30.26,NW,309,0.0,-999.0,74,-99.99,,,0.00,weatherlink.com 1.10,2013-02-12 07:30:00,
2013-02-12 00:45:00,37.5,29.0,30.26,NW,309,0.0,-999.0,72,-99.99,,,0.00,weatherlink.com 1.10,2013-02-12 07:45:00,
2013-02-12 01:00:00,36.4,30.0,30.27,NW,309,0.0,-999.0,77,-99.99,,,0.00,weatherlink.com 1.10,2013-02-12 08:00:00,
2013-02-12 01:15:00,35.3,29.0,30.26,NW,309,0.0,-999.0,77,-99.99,,,0.00,weatherlink.com 1.10,2013-02-12 08:15:00,
2013-02-12 01:30:00,34.5,29.0,30.26,NW,309,0.0,-999.0,81,-99.99,,,0.00,weatherlink.com 1.10,2013-02-12 08:30:00,
2013-02-12 01:45:00,35.0,29.0,30.27,NW,309,0.0,-999.0,79,-99.99,,,0.00,weatherlink.com 1.10,2013-02-12 08:45:00,
2013-02-12 02:00:00,35.8,29.0,30.27,NW,309,0.0,-999.0,76,-99.99,,,0.00,weatherlink.com 1.10,2013-02-12 09:00:00,
2013-02-12 02:15:00,35.0,28.0,30.27,NW,309,0.0,-999.0,77,-99.99,,,0.00,weatherlink.com 1.10,2013-02-12 09:15:00,
2013-02-12 02:30:00,34.7,29.0,30.27,NW,309,0.0,-999.0,78,-99.99,,,0.00,weatherlink.com 1.10,2013-02-12 09:30:00,
2013-02-12 02:45:00,34.5,29.0,30.27,NW,309,0.0,-999.0,80,-99.99,,,0.00,weatherlink.com 1.10,2013-02-12 09:45:00,
2013-02-12 03:00:00,35.3,29.0,30.28,NW,309,0.0,-999.0,78,-99.99,,,0.00,weatherlink.com 1.10,2013-02-12 10:00:00,
2013-02-12 03:15:00,35.1,29.0,30.28,NW,309,0.0,-999.0,79,-99.99,,,0.00,weatherlink.com 1.10,2013-02-12 10:15:00,
2013-02-12 03:30:00,34.3,29.0,30.28,NW,309,0.0,-999.0,80,-99.99,,,0.00,weatherlink.com 1.10,2013-02-12 10:30:00,
2013-02-12 03:45:00,33.4,29.0,30.27,NW,309,0.0,-999.0,82,-99.99,,,0.00,weatherlink.com 1.10,2013-02-12 10:45:00,
2013-02-12 04:00:00,32.9,29.0,30.27,NW,309,0.0,-999.0,84,-99.99,,,0.00,weatherlink.com 1.10,2013-02-12 11:00:00,
2013-02-12 04:15:00,32.9,29.0,30.27,NW,309,0.0,-999.0,84,-99.99,,,0.00,weatherlink.com 1.10,2013-02-12 11:15:00,
2013-02-12 04:30:00,32.4,28.0,30.27,NW,309,0.0,-999.0,84,-99.99,,,0.00,weatherlink.com 1.10,2013-02-12 11:30:00,
2013-02-12 05:00:00,33.7,28.0,30.29,NW,309,0.0,-999.0,80,-99.99,,,0.00,weatherlink.com 1.10,2013-02-12 12:00:00,
2013-02-12 05:16:00,33.3,28.0,30.29,NW,309,0.0,-999.0,81,-99.99,,,0.00,weatherlink.com 1.10,2013-02-12 12:16:00,
2013-02-12 05:30:00,32.5,28.0,30.30,NW,309,0.0,-999.0,82,-99.99,,,0.00,weatherlink.com 1.10,2013-02-12 12:30:00,
2013-02-12 05:45:00,32.4,28.0,30.30,NW,309,0.0,-999.0,82,-99.99,,,0.00,weatherlink.com 1.10,2013-02-12 12:45:00,
2013-02-12 06:00:00,32.3,27.0,30.31,NW,309,0.0,-999.0,82,-99.99,,,0.00,weatherlink.com 1.10,2013-02-12 13:00:00,
2013-02-12 06:16:00,32.2,28.0,30.31,NW,309,0.0,-999.0,83,-99.99,,,0.00,weatherlink.com 1.10,2013-02-12 13:16:00,
2013-02-12 06:31:00,32.5,28.0,30.32,NW,309,0.0,-999.0,82,-99.99,,,0.00,weatherlink.com 1.10,2013-02-12 13:31:00,
2013-02-12 06:46:00,32.2,27.0,30.32,NW,309,0.0,-999.0,81,-99.99,,,0.00,weatherlink.com 1.10,2013-02-12 13:46:00,
2013-02-12 07:01:00,31.2,27.0,30.33,NW,309,0.0,-999.0,84,-99.99,,,0.00,weatherlink.com 1.10,2013-02-12 14:01:00,
2013-02-12 07:16:00,30.7,27.0,30.33,NW,309,0.0,-999.0,86,-99.99,,,0.00,weatherlink.com 1.10,2013-02-12 14:16:00,
2013-02-12 07:31:00,30.4,27.0,30.34,NW,309,0.0,-999.0,86,-99.99,,,0.00,weatherlink.com 1.10,2013-02-12 14:31:00,
2013-02-12 07:46:00,30.6,27.0,30.35,NW,309,0.0,-999.0,87,-99.99,,,0.00,weatherlink.com 1.10,2013-02-12 14:46:00,
2013-02-12 08:01:00,32.5,29.0,30.35,NW,309,0.0,-999.0,87,-99.99,,,0.00,weatherlink.com 1.10,2013-02-12 15:01:00,
2013-02-12 08:16:00,35.8,28.0,30.36,NW,309,0.0,-999.0,74,-99.99,,,0.00,weatherlink.com 1.10,2013-02-12 15:16:00,
2013-02-12 08:31:00,38.4,28.0,30.37,NW,309,0.0,-999.0,66,-99.99,,,0.00,weatherlink.com 1.10,2013-02-12 15:31:00,
2013-02-12 08:46:00,40.9,28.0,30.37,NNE,24,0.0,-999.0,61,-99.99,,,0.00,weatherlink.com 1.10,2013-02-12 15:46:00,
2013-02-12 09:01:00,42.3,26.0,30.38,NNE,24,0.0,-999.0,53,-99.99,,,0.00,weatherlink.com 1.10,2013-02-12 16:01:00,
2013-02-12 09:16:00,43.7,26.0,30.39,NNE,24,0.0,-999.0,51,-99.99,,,0.00,weatherlink.com 1.10,2013-02-12 16:16:00,
2013-02-12 09:32:00,44.1,24.0,30.39,NW,312,0.0,-999.0,45,-99.99,,,0.00,weatherlink.com 1.10,2013-02-12 16:32:00,
2013-02-12 09:46:00,45.0,23.0,30.39,NW,312,2.0,-999.0,42,-99.99,,,0.00,weatherlink.com 1.10,2013-02-12 16:46:00,
2013-02-12 10:01:00,45.9,25.0,30.39,NW,312,0.0,-999.0,45,-99.99,,,0.00,weatherlink.com 1.10,2013-02-12 17:01:00,
2013-02-12 10:16:00,46.9,24.0,30.39,NW,306,0.0,-999.0,40,-99.99,,,0.00,weatherlink.com 1.10,2013-02-12 17:16:00,
2013-02-12 10:31:00,47.8,24.0,30.40,NW,306,3.0,-999.0,39,-99.99,,,0.00,weatherlink.com 1.10,2013-02-12 17:31:00,
2013-02-12 10:47:00,48.3,23.0,30.40,NW,307,0.0,-999.0,37,-99.99,,,0.00,weatherlink.com 1.10,2013-02-12 17:47:00,
2013-02-12 11:01:00,49.3,21.0,30.40,NW,321,6.0,-999.0,33,-99.99,,,0.00,weatherlink.com 1.10,2013-02-12 18:01:00,
2013-02-12 11:17:00,49.9,22.0,30.40,NNE,22,4.0,-999.0,34,-99.99,,,0.00,weatherlink.com 1.10,2013-02-12 18:17:00,
2013-02-12 11:31:00,51.2,22.0,30.39,NNW,340,2.0,-999.0,32,-99.99,,,0.00,weatherlink.com 1.10,2013-02-12 18:31:00,
2013-02-12 11:47:00,51.8,21.0,30.39,NNW,333,5.0,-999.0,30,-99.99,,,0.00,weatherlink.com 1.10,2013-02-12 18:47:00,
2013-02-12 12:02:00,52.1,21.0,30.38,North,10,3.0,-999.0,30,-99.99,,,0.00,weatherlink.com 1.10,2013-02-12 19:02:00,
2013-02-12 12:17:00,52.5,18.0,30.38,NNE,14,3.0,-999.0,26,-99.99,,,0.00,weatherlink.com 1.10,2013-02-12 19:17:00,
2013-02-12 12:32:00,53.2,20.0,30.37,NNW,336,1.0,-999.0,27,-99.99,,,0.00,weatherlink.com 1.10,2013-02-12 19:32:00,
2013-02-12 12:46:00,53.4,20.0,30.36,WNW,303,2.0,-999.0,27,-99.99,,,0.00,weatherlink.com 1.10,2013-02-12 19:46:00,
2013-02-12 13:02:00,54.2,21.0,30.36,NNW,348,8.0,-999.0,27,-99.99,,,0.00,weatherlink.com 1.10,2013-02-12 20:02:00,
2013-02-12 13:16:00,54.3,20.0,30.34,NW,306,4.0,-999.0,26,-99.99,,,0.00,weatherlink.com 1.10,2013-02-12 20:16:00,
2013-02-12 13:32:00,55.4,19.0,30.33,North,5,4.0,-999.0,24,-99.99,,,0.00,weatherlink.com 1.10,2013-02-12 20:32:00,
2013-02-12 13:47:00,55.5,20.0,30.32,WNW,303,1.0,-999.0,25,-99.99,,,0.00,weatherlink.com 1.10,2013-02-12 20:47:00,
2013-02-12 14:02:00,56.2,20.0,30.32,NNW,327,5.0,-999.0,24,-99.99,,,0.00,weatherlink.com 1.10,2013-02-12 21:02:00,
2013-02-12 14:16:00,56.2,18.0,30.31,WNW,293,2.0,-999.0,22,-99.99,,,0.00,weatherlink.com 1.10,2013-02-12 21:16:00,
2013-02-12 14:31:00,56.9,18.0,30.31,NW,306,3.0,-999.0,22,-99.99,,,0.00,weatherlink.com 1.10,2013-02-12 21:31:00,
2013-02-12 14:46:00,57.0,17.0,30.30,NNW,341,4.0,-999.0,21,-99.99,,,0.00,weatherlink.com 1.10,2013-02-12 21:46:00,
2013-02-12 15:01:00,57.3,17.0,30.30,NW,320,5.0,-999.0,21,-99.99,,,0.00,weatherlink.com 1.10,2013-02-12 22:01:00,
2013-02-12 15:16:00,57.1,16.0,30.29,North,355,2.0,-999.0,20,-99.99,,,0.00,weatherlink.com 1.10,2013-02-12 22:16:00,
2013-02-12 15:31:00,57.8,17.0,30.29,NNW,346,3.0,-999.0,20,-99.99,,,0.00,weatherlink.com 1.10,2013-02-12 22:31:00,
2013-02-12 15:46:00,57.6,17.0,30.29,North,360,1.0,-999.0,20,-99.99,,,0.00,weatherlink.com 1.10,2013-02-12 22:46:00,
2013-02-12 16:01:00,58.2,17.0,30.29,NNW,347,7.0,-999.0,20,-99.99,,,0.00,weatherlink.com 1.10,2013-02-12 23:01:00,
2013-02-12 16:17:00,58.1,16.0,30.29,NNW,336,3.0,-999.0,19,-99.99,,,0.00,weatherlink.com 1.10,2013-02-12 23:17:00,
2013-02-12 16:31:00,58.1,16.0,30.29,North,5,5.0,-999.0,19,-99.99,,,0.00,weatherlink.com 1.10,2013-02-12 23:31:00,
2013-02-12 16:47:00,58.3,16.0,30.28,NW,308,3.0,-999.0,19,-99.99,,,0.00,weatherlink.com 1.10,2013-02-12 23:47:00,
2013-02-12 17:02:00,58.4,16.0,30.28,NW,310,0.0,-999.0,19,-99.99,,,0.00,weatherlink.com 1.10,2013-02-13 00:02:00,
2013-02-12 17:17:00,58.1,16.0,30.28,NW,311,1.0,-999.0,19,-99.99,,,0.00,weatherlink.com 1.10,2013-02-13 00:17:00,
2013-02-12 17:32:00,57.3,15.0,30.28,NW,311,3.0,-999.0,19,-99.99,,,0.00,weatherlink.com 1.10,2013-02-13 00:32:00,
2013-02-12 17:47:00,56.4,16.0,30.28,NW,313,1.0,-999.0,20,-99.99,,,0.00,weatherlink.com 1.10,2013-02-13 00:47:00,
2013-02-12 18:02:00,55.8,16.0,30.28,NW,313,2.0,-999.0,21,-99.99,,,0.00,weatherlink.com 1.10,2013-02-13 01:02:00,
2013-02-12 18:17:00,55.0,18.0,30.28,NW,313,1.0,-999.0,23,-99.99,,,0.00,weatherlink.com 1.10,2013-02-13 01:17:00,
2013-02-12 18:32:00,53.8,21.0,30.28,NW,313,0.0,-999.0,28,-99.99,,,0.00,weatherlink.com 1.10,2013-02-13 01:32:00,
2013-02-12 18:47:00,51.8,23.0,30.28,NW,313,0.0,-999.0,33,-99.99,,,0.00,weatherlink.com 1.10,2013-02-13 01:47:00,
2013-02-12 19:04:00,49.7,25.0,30.29,NW,313,0.0,-999.0,38,-99.99,,,0.00,weatherlink.com 1.10,2013-02-13 02:04:00,
2013-02-12 19:17:00,48.1,25.0,30.29,NW,313,0.0,-999.0,41,-99.99,,,0.00,weatherlink.com 1.10,2013-02-13 02:17:00,
2013-02-12 19:32:00,46.7,26.0,30.29,NW,313,0.0,-999.0,44,-99.99,,,0.00,weatherlink.com 1.10,2013-02-13 02:32:00,
2013-02-12 19:47:00,45.7,27.0,30.29,NW,313,0.0,-999.0,49,-99.99,,,0.00,weatherlink.com 1.10,2013-02-13 02:47:00,
2013-02-12 20:02:00,44.1,27.0,30.29,NW,313,0.0,-999.0,52,-99.99,,,0.00,weatherlink.com 1.10,2013-02-13 03:02:00,
2013-02-12 20:17:00,43.7,27.0,30.29,NW,313,0.0,-999.0,53,-99.99,,,0.00,weatherlink.com 1.10,2013-02-13 03:17:00,
2013-02-12 20:32:00,43.1,29.0,30.29,NW,313,0.0,-999.0,57,-99.99,,,0.00,weatherlink.com 1.10,2013-02-13 03:32:00,
2013-02-12 20:47:00,42.5,29.0,30.29,NW,313,0.0,-999.0,59,-99.99,,,0.00,weatherlink.com 1.10,2013-02-13 03:47:00,
2013-02-12 21:02:00,42.4,30.0,30.29,NW,313,0.0,-999.0,61,-99.99,,,0.00,weatherlink.com 1.10,2013-02-13 04:02:00,
2013-02-12 21:17:00,42.5,28.0,30.29,NW,313,0.0,-999.0,58,-99.99,,,0.00,weatherlink.com 1.10,2013-02-13 04:17:00,
2013-02-12 21:32:00,41.8,28.0,30.29,NW,313,0.0,-999.0,58,-99.99,,,0.00,weatherlink.com 1.10,2013-02-13 04:32:00,
2013-02-12 21:47:00,42.5,27.0,30.30,NW,313,0.0,-999.0,55,-99.99,,,0.00,weatherlink.com 1.10,2013-02-13 04:47:00,
2013-02-12 22:02:00,42.4,28.0,30.30,NW,313,0.0,-999.0,56,-99.99,,,0.00,weatherlink.com 1.10,2013-02-13 05:02:00,
2013-02-12 22:17:00,42.7,28.0,30.30,NW,313,0.0,-999.0,56,-99.99,,,0.00,weatherlink.com 1.10,2013-02-13 05:17:00,
2013-02-12 22:32:00,42.7,26.0,30.30,NW,313,0.0,-999.0,53,-99.99,,,0.00,weatherlink.com 1.10,2013-02-13 05:32:00,
2013-02-12 22:47:00,42.6,26.0,30.30,NW,313,0.0,-999.0,53,-99.99,,,0.00,weatherlink.com 1.10,2013-02-13 05:47:00,
2013-02-12 23:02:00,43.0,25.0,30.30,NW,313,2.0,-999.0,49,-99.99,,,0.00,weatherlink.com 1.10,2013-02-13 06:02:00,
2013-02-12 23:17:00,42.8,24.0,30.30,NW,313,0.0,-999.0,48,-99.99,,,0.00,weatherlink.com 1.10,2013-02-13 06:17:00,
2013-02-12 23:32:00,42.5,25.0,30.29,NW,313,0.0,-999.0,50,-99.99,,,0.00,weatherlink.com 1.10,2013-02-13 06:32:00,
2013-02-12 23:47:00,42.0,25.0,30.29,NW,313,0.0,-999.0,52,-99.99,,,0.00,weatherlink.com 1.10,2013-02-13 06:47:00,